Cameron, Texas
Current Conditions -  °F | °C
As of 2:15 AM on Sunday 26 Oct 2014 (Local Time) from KT35 Reporting Station
Clear Clear  
Wind Chill: 67°   Ceiling: Unl
Heat Index: 67°   Visibility: 10mi
Dew Point: 60°   Wind: 7mph
Humidity: 78%   Direction: 200°SSW
Pressure: 30.06"   Gusts: NA
Location:  30.85°N, 96.98°W
Report Text: KT35 260715Z AUTO 20006KT 10SM CLR 19/16 A3006 RMK AO2 T01940155
Loading
Personal Weather Stations






























Interactive Weather Map
Tropical Storm Tracking
New forecast layout! Learn more

10-Day Weather Forecast

Advertisements
Track Severe Weather on mobile